Terminal Aerodrome Forecast
Issued by NWS Sterling, VA

Current Version | Previous Version | Graphics & Text | Print | Product List | Glossary On
Versions: 1 2 3 4 5 6 7 8 9 10 11 12 13 14 15 16 17 18 19 20 21 22 23 24
000
FTUS41 KLWX 302300 RRA
TAFDCA
TAF
KDCA 302347Z 3100/3124 13009KT P6SM OVC050
     FM311000 20006KT 5SM BR BKN130
     FM311200 20007KT P6SM BKN130
     FM311800 20010KT P6SM -SHRA VCTS BKN050CB
     FM312200 21009KT P6SM BKN050=

USA.gov is the U.S. government's official web portal to all federal, state and local government web resources and services.